sensor_id;sensor_type;location;lat;lon;timestamp;P1;durP1;ratioP1;P2;durP2;ratioP2
23608;SDS011;11982;50.810;4.442;2024-02-23T00:00:10;9.82;;;1.40;;
23608;SDS011;11982;50.810;4.442;2024-02-23T00:02:36;6.75;;;1.00;;
23608;SDS011;11982;50.810;4.442;2024-02-23T00:05:02;6.85;;;1.40;;
23608;SDS011;11982;50.810;4.442;2024-02-23T00:07:29;2.53;;;0.60;;
23608;SDS011;11982;50.810;4.442;2024-02-23T00:09:54;5.82;;;0.52;;
23608;SDS011;11982;50.810;4.442;2024-02-23T00:12:20;6.68;;;1.00;;
23608;SDS011;11982;50.810;4.442;2024-02-23T00:14:45;7.70;;;1.10;;
23608;SDS011;11982;50.810;4.442;2024-02-23T00:17:11;6.32;;;0.75;;
23608;SDS011;11982;50.810;4.442;2024-02-23T00:19:37;5.63;;;0.82;;
23608;SDS011;11982;50.810;4.442;2024-02-23T00:22:03;5.65;;;0.70;;
23608;SDS011;11982;50.810;4.442;2024-02-23T00:24:29;7.40;;;0.57;;
23608;SDS011;11982;50.810;4.442;2024-02-23T00:26:55;8.30;;;0.93;;
23608;SDS011;11982;50.810;4.442;2024-02-23T00:29:20;8.13;;;1.17;;
23608;SDS011;11982;50.810;4.442;2024-02-23T00:31:47;4.45;;;0.70;;
23608;SDS011;11982;50.810;4.442;2024-02-23T00:34:12;5.00;;;0.80;;
23608;SDS011;11982;50.810;4.442;2024-02-23T00:36:39;4.97;;;0.57;;
23608;SDS011;11982;50.810;4.442;2024-02-23T00:39:06;4.88;;;0.55;;
23608;SDS011;11982;50.810;4.442;2024-02-23T00:41:33;2.30;;;0.52;;
23608;SDS011;11982;50.810;4.442;2024-02-23T00:43:59;4.43;;;0.50;;
23608;SDS011;11982;50.810;4.442;2024-02-23T00:46:24;7.65;;;1.20;;
23608;SDS011;11982;50.810;4.442;2024-02-23T00:48:50;6.03;;;1.05;;
23608;SDS011;11982;50.810;4.442;2024-02-23T00:51:16;7.63;;;0.85;;
23608;SDS011;11982;50.810;4.442;2024-02-23T00:53:41;4.43;;;0.82;;
23608;SDS011;11982;50.810;4.442;2024-02-23T00:56:07;3.00;;;0.68;;
23608;SDS011;11982;50.810;4.442;2024-02-23T00:58:33;4.57;;;0.77;;
23608;SDS011;11982;50.810;4.442;2024-02-23T01:00:59;2.10;;;0.77;;
23608;SDS011;11982;50.810;4.442;2024-02-23T01:03:25;8.68;;;0.98;;
23608;SDS011;11982;50.810;4.442;2024-02-23T01:05:51;5.47;;;1.33;;
23608;SDS011;11982;50.810;4.442;2024-02-23T01:08:17;7.88;;;0.80;;
23608;SDS011;11982;50.810;4.442;2024-02-23T01:10:42;10.25;;;1.05;;
23608;SDS011;11982;50.810;4.442;2024-02-23T01:13:08;3.78;;;0.68;;
23608;SDS011;11982;50.810;4.442;2024-02-23T01:15:34;4.40;;;0.60;;
23608;SDS011;11982;50.810;4.442;2024-02-23T01:17:59;8.27;;;1.60;;
23608;SDS011;11982;50.810;4.442;2024-02-23T01:20:25;3.40;;;0.70;;
23608;SDS011;11982;50.810;4.442;2024-02-23T01:22:51;8.35;;;1.05;;
23608;SDS011;11982;50.810;4.442;2024-02-23T01:25:17;4.63;;;0.60;;
23608;SDS011;11982;50.810;4.442;2024-02-23T01:27:42;8.45;;;0.98;;
23608;SDS011;11982;50.810;4.442;2024-02-23T01:30:11;5.25;;;1.13;;
23608;SDS011;11982;50.810;4.442;2024-02-23T01:32:37;4.30;;;0.68;;
23608;SDS011;11982;50.810;4.442;2024-02-23T01:35:04;7.50;;;1.20;;
23608;SDS011;11982;50.810;4.442;2024-02-23T01:37:31;8.23;;;0.90;;
23608;SDS011;11982;50.810;4.442;2024-02-23T01:39:57;2.88;;;0.70;;
23608;SDS011;11982;50.810;4.442;2024-02-23T01:42:23;6.03;;;0.60;;
23608;SDS011;11982;50.810;4.442;2024-02-23T01:44:49;4.35;;;0.82;;
23608;SDS011;11982;50.810;4.442;2024-02-23T01:47:15;8.88;;;1.10;;
23608;SDS011;11982;50.810;4.442;2024-02-23T01:49:41;6.32;;;1.10;;
23608;SDS011;11982;50.810;4.442;2024-02-23T01:52:07;6.88;;;1.50;;
23608;SDS011;11982;50.810;4.442;2024-02-23T01:54:33;7.30;;;1.38;;
23608;SDS011;11982;50.810;4.442;2024-02-23T01:56:59;12.65;;;1.40;;
23608;SDS011;11982;50.810;4.442;2024-02-23T01:59:26;4.60;;;1.30;;
23608;SDS011;11982;50.810;4.442;2024-02-23T02:01:52;9.20;;;1.63;;
23608;SDS011;11982;50.810;4.442;2024-02-23T02:04:18;11.73;;;1.88;;
23608;SDS011;11982;50.810;4.442;2024-02-23T02:06:45;6.20;;;1.70;;
23608;SDS011;11982;50.810;4.442;2024-02-23T02:09:11;13.15;;;2.65;;
23608;SDS011;11982;50.810;4.442;2024-02-23T02:11:46;7.22;;;2.10;;
23608;SDS011;11982;50.810;4.442;2024-02-23T02:14:13;10.10;;;2.20;;
23608;SDS011;11982;50.810;4.442;2024-02-23T02:16:40;10.38;;;2.25;;
23608;SDS011;11982;50.810;4.442;2024-02-23T02:19:05;15.43;;;3.03;;
23608;SDS011;11982;50.810;4.442;2024-02-23T02:21:31;6.72;;;2.13;;
23608;SDS011;11982;50.810;4.442;2024-02-23T02:23:58;13.60;;;2.60;;
23608;SDS011;11982;50.810;4.442;2024-02-23T02:26:24;8.70;;;2.25;;
23608;SDS011;11982;50.810;4.442;2024-02-23T02:28:50;10.90;;;2.78;;
23608;SDS011;11982;50.810;4.442;2024-02-23T02:31:15;10.15;;;2.72;;
23608;SDS011;11982;50.810;4.442;2024-02-23T02:33:41;10.57;;;2.20;;
23608;SDS011;11982;50.810;4.442;2024-02-23T02:36:07;9.85;;;2.63;;
23608;SDS011;11982;50.810;4.442;2024-02-23T02:38:33;8.32;;;2.95;;
23608;SDS011;11982;50.810;4.442;2024-02-23T02:40:59;8.98;;;1.92;;
23608;SDS011;11982;50.810;4.442;2024-02-23T02:43:27;9.55;;;2.30;;
23608;SDS011;11982;50.810;4.442;2024-02-23T02:45:53;10.13;;;2.42;;
23608;SDS011;11982;50.810;4.442;2024-02-23T02:48:18;6.25;;;1.60;;
23608;SDS011;11982;50.810;4.442;2024-02-23T02:50:44;6.90;;;1.88;;
23608;SDS011;11982;50.810;4.442;2024-02-23T02:53:10;8.88;;;1.65;;
23608;SDS011;11982;50.810;4.442;2024-02-23T02:55:36;6.70;;;1.77;;
23608;SDS011;11982;50.810;4.442;2024-02-23T02:58:06;6.97;;;2.53;;
23608;SDS011;11982;50.810;4.442;2024-02-23T03:00:32;9.77;;;2.03;;
23608;SDS011;11982;50.810;4.442;2024-02-23T03:02:57;11.65;;;1.90;;
23608;SDS011;11982;50.810;4.442;2024-02-23T03:05:23;9.35;;;2.28;;
23608;SDS011;11982;50.810;4.442;2024-02-23T03:07:49;9.18;;;2.00;;
23608;SDS011;11982;50.810;4.442;2024-02-23T03:10:14;13.20;;;2.15;;
23608;SDS011;11982;50.810;4.442;2024-02-23T03:12:40;7.97;;;1.83;;
23608;SDS011;11982;50.810;4.442;2024-02-23T03:15:06;13.55;;;1.83;;
23608;SDS011;11982;50.810;4.442;2024-02-23T03:17:33;15.85;;;2.28;;
23608;SDS011;11982;50.810;4.442;2024-02-23T03:19:59;6.65;;;1.85;;
23608;SDS011;11982;50.810;4.442;2024-02-23T03:22:24;12.30;;;1.90;;
23608;SDS011;11982;50.810;4.442;2024-02-23T03:24:50;11.23;;;2.28;;
23608;SDS011;11982;50.810;4.442;2024-02-23T03:27:16;6.90;;;1.92;;
23608;SDS011;11982;50.810;4.442;2024-02-23T03:29:41;9.48;;;1.77;;
23608;SDS011;11982;50.810;4.442;2024-02-23T03:32:07;9.85;;;1.73;;
23608;SDS011;11982;50.810;4.442;2024-02-23T03:34:33;7.85;;;1.80;;
23608;SDS011;11982;50.810;4.442;2024-02-23T03:36:58;12.70;;;1.95;;
23608;SDS011;11982;50.810;4.442;2024-02-23T03:39:26;14.63;;;1.77;;
23608;SDS011;11982;50.810;4.442;2024-02-23T03:41:53;13.30;;;1.52;;
23608;SDS011;11982;50.810;4.442;2024-02-23T03:44:19;12.95;;;1.92;;
23608;SDS011;11982;50.810;4.442;2024-02-23T03:46:45;10.27;;;1.63;;
23608;SDS011;11982;50.810;4.442;2024-02-23T03:49:10;9.18;;;1.60;;
23608;SDS011;11982;50.810;4.442;2024-02-23T03:51:37;11.00;;;1.70;;
23608;SDS011;11982;50.810;4.442;2024-02-23T03:54:04;13.52;;;2.20;;
23608;SDS011;11982;50.810;4.442;2024-02-23T03:56:37;20.30;;;2.58;;
23608;SDS011;11982;50.810;4.442;2024-02-23T03:59:04;13.73;;;2.17;;
23608;SDS011;11982;50.810;4.442;2024-02-23T04:01:30;8.85;;;1.67;;
23608;SDS011;11982;50.810;4.442;2024-02-23T04:03:56;13.32;;;1.88;;
23608;SDS011;11982;50.810;4.442;2024-02-23T04:06:22;9.27;;;1.52;;
23608;SDS011;11982;50.810;4.442;2024-02-23T04:08:47;9.40;;;1.67;;
23608;SDS011;11982;50.810;4.442;2024-02-23T04:11:13;8.25;;;1.40;;
23608;SDS011;11982;50.810;4.442;2024-02-23T04:13:39;11.68;;;1.60;;
23608;SDS011;11982;50.810;4.442;2024-02-23T04:16:04;13.40;;;1.55;;
23608;SDS011;11982;50.810;4.442;2024-02-23T04:18:30;4.30;;;1.27;;
23608;SDS011;11982;50.810;4.442;2024-02-23T04:20:57;13.20;;;1.75;;
23608;SDS011;11982;50.810;4.442;2024-02-23T04:23:22;21.33;;;2.00;;
23608;SDS011;11982;50.810;4.442;2024-02-23T04:25:48;11.02;;;1.83;;
23608;SDS011;11982;50.810;4.442;2024-02-23T04:28:15;15.93;;;2.40;;
23608;SDS011;11982;50.810;4.442;2024-02-23T04:30:42;9.60;;;2.20;;
23608;SDS011;11982;50.810;4.442;2024-02-23T04:33:07;10.38;;;1.92;;
23608;SDS011;11982;50.810;4.442;2024-02-23T04:35:33;14.75;;;2.90;;
23608;SDS011;11982;50.810;4.442;2024-02-23T04:37:59;14.18;;;2.42;;
23608;SDS011;11982;50.810;4.442;2024-02-23T04:40:24;9.85;;;2.40;;
23608;SDS011;11982;50.810;4.442;2024-02-23T04:42:50;13.05;;;1.92;;
23608;SDS011;11982;50.810;4.442;2024-02-23T04:45:16;4.90;;;1.40;;
23608;SDS011;11982;50.810;4.442;2024-02-23T04:47:41;10.60;;;1.80;;
23608;SDS011;11982;50.810;4.442;2024-02-23T04:50:07;12.43;;;1.80;;
23608;SDS011;11982;50.810;4.442;2024-02-23T04:52:34;9.50;;;2.05;;
23608;SDS011;11982;50.810;4.442;2024-02-23T04:54:59;9.20;;;1.60;;
23608;SDS011;11982;50.810;4.442;2024-02-23T04:57:25;9.93;;;1.67;;
23608;SDS011;11982;50.810;4.442;2024-02-23T04:59:50;6.72;;;1.83;;
23608;SDS011;11982;50.810;4.442;2024-02-23T05:02:16;9.70;;;1.42;;
23608;SDS011;11982;50.810;4.442;2024-02-23T05:04:42;8.05;;;1.52;;
23608;SDS011;11982;50.810;4.442;2024-02-23T05:07:07;12.65;;;1.95;;
23608;SDS011;11982;50.810;4.442;2024-02-23T05:09:33;12.20;;;2.40;;
23608;SDS011;11982;50.810;4.442;2024-02-23T05:12:00;7.53;;;1.75;;
23608;SDS011;11982;50.810;4.442;2024-02-23T05:14:26;11.50;;;1.77;;
23608;SDS011;11982;50.810;4.442;2024-02-23T05:16:52;9.15;;;1.30;;
23608;SDS011;11982;50.810;4.442;2024-02-23T05:19:17;6.68;;;1.60;;
23608;SDS011;11982;50.810;4.442;2024-02-23T05:21:43;11.45;;;1.60;;
23608;SDS011;11982;50.810;4.442;2024-02-23T05:24:10;12.65;;;1.75;;
23608;SDS011;11982;50.810;4.442;2024-02-23T05:26:36;12.18;;;1.73;;
23608;SDS011;11982;50.810;4.442;2024-02-23T05:29:02;16.02;;;2.60;;
23608;SDS011;11982;50.810;4.442;2024-02-23T05:31:43;15.55;;;2.25;;
23608;SDS011;11982;50.810;4.442;2024-02-23T05:34:11;7.30;;;1.45;;
23608;SDS011;11982;50.810;4.442;2024-02-23T05:36:37;8.20;;;1.83;;
23608;SDS011;11982;50.810;4.442;2024-02-23T05:39:02;12.95;;;1.73;;
23608;SDS011;11982;50.810;4.442;2024-02-23T05:41:28;27.27;;;2.65;;
23608;SDS011;11982;50.810;4.442;2024-02-23T05:43:53;10.38;;;1.58;;
23608;SDS011;11982;50.810;4.442;2024-02-23T05:46:19;10.48;;;1.52;;
23608;SDS011;11982;50.810;4.442;2024-02-23T05:48:46;10.13;;;2.33;;
23608;SDS011;11982;50.810;4.442;2024-02-23T05:51:11;8.00;;;1.60;;
23608;SDS011;11982;50.810;4.442;2024-02-23T05:53:37;9.45;;;1.52;;
23608;SDS011;11982;50.810;4.442;2024-02-23T05:56:03;8.20;;;1.95;;
23608;SDS011;11982;50.810;4.442;2024-02-23T05:58:29;10.20;;;1.77;;
23608;SDS011;11982;50.810;4.442;2024-02-23T06:00:54;13.57;;;1.95;;
23608;SDS011;11982;50.810;4.442;2024-02-23T06:03:20;6.60;;;1.38;;
23608;SDS011;11982;50.810;4.442;2024-02-23T06:05:46;11.73;;;1.92;;
23608;SDS011;11982;50.810;4.442;2024-02-23T06:08:11;13.15;;;1.63;;
23608;SDS011;11982;50.810;4.442;2024-02-23T06:10:37;8.82;;;1.48;;
23608;SDS011;11982;50.810;4.442;2024-02-23T06:13:03;13.93;;;2.40;;
23608;SDS011;11982;50.810;4.442;2024-02-23T06:15:29;10.07;;;1.88;;
23608;SDS011;11982;50.810;4.442;2024-02-23T06:17:54;20.65;;;1.85;;
23608;SDS011;11982;50.810;4.442;2024-02-23T06:20:20;14.82;;;1.80;;
23608;SDS011;11982;50.810;4.442;2024-02-23T06:22:45;8.82;;;0.98;;
23608;SDS011;11982;50.810;4.442;2024-02-23T06:25:11;9.55;;;1.55;;
23608;SDS011;11982;50.810;4.442;2024-02-23T06:27:37;9.40;;;1.70;;
23608;SDS011;11982;50.810;4.442;2024-02-23T06:30:03;12.88;;;1.58;;
23608;SDS011;11982;50.810;4.442;2024-02-23T06:32:29;12.18;;;1.70;;
23608;SDS011;11982;50.810;4.442;2024-02-23T06:34:55;9.50;;;1.85;;
23608;SDS011;11982;50.810;4.442;2024-02-23T06:37:21;11.20;;;1.58;;
23608;SDS011;11982;50.810;4.442;2024-02-23T06:39:46;11.00;;;1.85;;
23608;SDS011;11982;50.810;4.442;2024-02-23T06:42:16;9.48;;;2.00;;
23608;SDS011;11982;50.810;4.442;2024-02-23T06:44:41;21.05;;;1.70;;
23608;SDS011;11982;50.810;4.442;2024-02-23T06:47:08;14.15;;;1.85;;
23608;SDS011;11982;50.810;4.442;2024-02-23T06:49:33;10.10;;;2.00;;
23608;SDS011;11982;50.810;4.442;2024-02-23T06:51:59;17.50;;;1.85;;
23608;SDS011;11982;50.810;4.442;2024-02-23T06:54:25;11.25;;;1.52;;
23608;SDS011;11982;50.810;4.442;2024-02-23T06:56:51;9.93;;;2.17;;
23608;SDS011;11982;50.810;4.442;2024-02-23T06:59:16;12.48;;;1.60;;
23608;SDS011;11982;50.810;4.442;2024-02-23T07:01:51;10.98;;;1.58;;
23608;SDS011;11982;50.810;4.442;2024-02-23T07:04:17;14.23;;;2.08;;
23608;SDS011;11982;50.810;4.442;2024-02-23T07:06:44;10.73;;;1.88;;
23608;SDS011;11982;50.810;4.442;2024-02-23T07:09:10;6.13;;;1.17;;
23608;SDS011;11982;50.810;4.442;2024-02-23T07:11:36;16.00;;;2.03;;
23608;SDS011;11982;50.810;4.442;2024-02-23T07:14:03;10.32;;;1.60;;
23608;SDS011;11982;50.810;4.442;2024-02-23T07:16:28;8.13;;;1.85;;
23608;SDS011;11982;50.810;4.442;2024-02-23T07:18:54;13.10;;;1.67;;
23608;SDS011;11982;50.810;4.442;2024-02-23T07:21:21;14.32;;;1.50;;
23608;SDS011;11982;50.810;4.442;2024-02-23T07:23:47;10.68;;;2.00;;
23608;SDS011;11982;50.810;4.442;2024-02-23T07:26:13;16.30;;;1.80;;
23608;SDS011;11982;50.810;4.442;2024-02-23T07:28:38;11.35;;;2.15;;
23608;SDS011;11982;50.810;4.442;2024-02-23T07:31:04;11.02;;;2.30;;
23608;SDS011;11982;50.810;4.442;2024-02-23T07:33:30;7.30;;;1.42;;
23608;SDS011;11982;50.810;4.442;2024-02-23T07:35:55;13.32;;;1.98;;
23608;SDS011;11982;50.810;4.442;2024-02-23T07:38:21;7.53;;;1.60;;
23608;SDS011;11982;50.810;4.442;2024-02-23T07:40:47;15.35;;;1.60;;
23608;SDS011;11982;50.810;4.442;2024-02-23T07:43:12;11.75;;;1.45;;
23608;SDS011;11982;50.810;4.442;2024-02-23T07:45:38;8.90;;;1.70;;
23608;SDS011;11982;50.810;4.442;2024-02-23T07:48:04;9.55;;;2.17;;
23608;SDS011;11982;50.810;4.442;2024-02-23T07:50:30;13.77;;;1.90;;
23608;SDS011;11982;50.810;4.442;2024-02-23T07:52:55;10.55;;;1.75;;
23608;SDS011;11982;50.810;4.442;2024-02-23T07:55:21;12.27;;;1.98;;
23608;SDS011;11982;50.810;4.442;2024-02-23T07:57:47;11.63;;;1.58;;
23608;SDS011;11982;50.810;4.442;2024-02-23T08:00:13;16.38;;;1.58;;
23608;SDS011;11982;50.810;4.442;2024-02-23T08:02:39;8.25;;;1.02;;
23608;SDS011;11982;50.810;4.442;2024-02-23T08:05:05;12.00;;;2.17;;
23608;SDS011;11982;50.810;4.442;2024-02-23T08:07:31;10.20;;;1.63;;
23608;SDS011;11982;50.810;4.442;2024-02-23T08:09:57;15.82;;;1.88;;
23608;SDS011;11982;50.810;4.442;2024-02-23T08:12:23;13.13;;;1.67;;
23608;SDS011;11982;50.810;4.442;2024-02-23T08:14:48;10.43;;;1.45;;
23608;SDS011;11982;50.810;4.442;2024-02-23T08:17:18;10.45;;;1.25;;
23608;SDS011;11982;50.810;4.442;2024-02-23T08:19:43;7.38;;;1.40;;
23608;SDS011;11982;50.810;4.442;2024-02-23T08:22:09;6.35;;;1.38;;
23608;SDS011;11982;50.810;4.442;2024-02-23T08:24:35;9.65;;;1.67;;
23608;SDS011;11982;50.810;4.442;2024-02-23T08:27:01;9.75;;;1.58;;
23608;SDS011;11982;50.810;4.442;2024-02-23T08:29:27;9.10;;;1.58;;
23608;SDS011;11982;50.810;4.442;2024-02-23T08:31:53;5.97;;;1.92;;
23608;SDS011;11982;50.810;4.442;2024-02-23T08:34:19;16.27;;;2.22;;
23608;SDS011;11982;50.810;4.442;2024-02-23T08:36:44;12.82;;;2.30;;
23608;SDS011;11982;50.810;4.442;2024-02-23T08:39:10;12.23;;;2.65;;
23608;SDS011;11982;50.810;4.442;2024-02-23T08:41:35;12.73;;;1.73;;
23608;SDS011;11982;50.810;4.442;2024-02-23T08:44:01;13.32;;;2.00;;
23608;SDS011;11982;50.810;4.442;2024-02-23T08:46:27;10.15;;;2.25;;
23608;SDS011;11982;50.810;4.442;2024-02-23T08:48:52;9.50;;;1.33;;
23608;SDS011;11982;50.810;4.442;2024-02-23T08:51:18;19.00;;;2.55;;
23608;SDS011;11982;50.810;4.442;2024-02-23T08:53:44;12.93;;;2.15;;
23608;SDS011;11982;50.810;4.442;2024-02-23T08:56:10;13.25;;;2.22;;
23608;SDS011;11982;50.810;4.442;2024-02-23T08:58:37;13.32;;;2.13;;
23608;SDS011;11982;50.810;4.442;2024-02-23T09:01:02;8.05;;;1.60;;
23608;SDS011;11982;50.810;4.442;2024-02-23T09:03:29;7.65;;;1.35;;
23608;SDS011;11982;50.810;4.442;2024-02-23T09:05:55;9.80;;;1.80;;
23608;SDS011;11982;50.810;4.442;2024-02-23T09:08:20;5.40;;;1.67;;
23608;SDS011;11982;50.810;4.442;2024-02-23T09:10:46;7.65;;;1.75;;
23608;SDS011;11982;50.810;4.442;2024-02-23T09:13:12;8.43;;;2.03;;
23608;SDS011;11982;50.810;4.442;2024-02-23T09:15:37;12.25;;;2.20;;
23608;SDS011;11982;50.810;4.442;2024-02-23T09:18:03;14.05;;;1.95;;
23608;SDS011;11982;50.810;4.442;2024-02-23T09:20:29;16.00;;;1.73;;
23608;SDS011;11982;50.810;4.442;2024-02-23T09:22:55;8.82;;;2.70;;
23608;SDS011;11982;50.810;4.442;2024-02-23T09:25:20;15.48;;;2.00;;
23608;SDS011;11982;50.810;4.442;2024-02-23T09:27:46;14.80;;;2.13;;
23608;SDS011;11982;50.810;4.442;2024-02-23T09:30:12;9.00;;;1.67;;
23608;SDS011;11982;50.810;4.442;2024-02-23T09:32:38;14.75;;;2.30;;
23608;SDS011;11982;50.810;4.442;2024-02-23T09:35:04;9.63;;;1.83;;
23608;SDS011;11982;50.810;4.442;2024-02-23T09:37:31;11.95;;;2.33;;
23608;SDS011;11982;50.810;4.442;2024-02-23T09:39:57;13.90;;;1.98;;
23608;SDS011;11982;50.810;4.442;2024-02-23T09:42:23;16.10;;;2.33;;
23608;SDS011;11982;50.810;4.442;2024-02-23T09:44:58;7.32;;;2.17;;
23608;SDS011;11982;50.810;4.442;2024-02-23T09:47:28;14.18;;;2.80;;
23608;SDS011;11982;50.810;4.442;2024-02-23T09:49:54;13.57;;;2.05;;
23608;SDS011;11982;50.810;4.442;2024-02-23T09:52:20;10.30;;;1.88;;
23608;SDS011;11982;50.810;4.442;2024-02-23T09:54:47;13.73;;;1.92;;
23608;SDS011;11982;50.810;4.442;2024-02-23T09:57:13;9.50;;;1.85;;
23608;SDS011;11982;50.810;4.442;2024-02-23T09:59:40;9.77;;;2.00;;
23608;SDS011;11982;50.810;4.442;2024-02-23T10:02:07;7.57;;;1.70;;
23608;SDS011;11982;50.810;4.442;2024-02-23T10:04:35;12.02;;;2.08;;
23608;SDS011;11982;50.810;4.442;2024-02-23T10:07:01;9.40;;;1.90;;
23608;SDS011;11982;50.810;4.442;2024-02-23T10:09:29;5.07;;;1.77;;
23608;SDS011;11982;50.810;4.442;2024-02-23T10:11:55;7.25;;;1.52;;
23608;SDS011;11982;50.810;4.442;2024-02-23T10:14:21;7.05;;;1.20;;
23608;SDS011;11982;50.810;4.442;2024-02-23T10:16:47;10.00;;;1.58;;
23608;SDS011;11982;50.810;4.442;2024-02-23T10:19:13;11.07;;;1.30;;
23608;SDS011;11982;50.810;4.442;2024-02-23T10:21:39;11.05;;;1.50;;
23608;SDS011;11982;50.810;4.442;2024-02-23T10:24:05;5.53;;;1.27;;
23608;SDS011;11982;50.810;4.442;2024-02-23T10:26:31;8.95;;;1.20;;
23608;SDS011;11982;50.810;4.442;2024-02-23T10:28:57;9.70;;;1.48;;
23608;SDS011;11982;50.810;4.442;2024-02-23T10:31:24;12.48;;;1.83;;
23608;SDS011;11982;50.810;4.442;2024-02-23T10:33:50;13.52;;;2.55;;
23608;SDS011;11982;50.810;4.442;2024-02-23T10:36:17;8.60;;;1.77;;
23608;SDS011;11982;50.810;4.442;2024-02-23T10:38:45;12.35;;;1.65;;
23608;SDS011;11982;50.810;4.442;2024-02-23T10:41:13;10.65;;;1.60;;
23608;SDS011;11982;50.810;4.442;2024-02-23T10:43:48;7.18;;;2.00;;
23608;SDS011;11982;50.810;4.442;2024-02-23T10:46:14;6.38;;;1.80;;
23608;SDS011;11982;50.810;4.442;2024-02-23T10:48:43;14.38;;;1.88;;
23608;SDS011;11982;50.810;4.442;2024-02-23T10:51:13;7.72;;;1.88;;
23608;SDS011;11982;50.810;4.442;2024-02-23T10:53:39;12.93;;;2.38;;
23608;SDS011;11982;50.810;4.442;2024-02-23T10:56:05;6.13;;;1.48;;
23608;SDS011;11982;50.810;4.442;2024-02-23T10:58:32;10.23;;;1.52;;
23608;SDS011;11982;50.810;4.442;2024-02-23T11:01:02;5.10;;;1.25;;
23608;SDS011;11982;50.810;4.442;2024-02-23T11:03:29;8.25;;;1.40;;
23608;SDS011;11982;50.810;4.442;2024-02-23T11:05:56;10.52;;;1.58;;
23608;SDS011;11982;50.810;4.442;2024-02-23T11:08:22;8.38;;;1.42;;
23608;SDS011;11982;50.810;4.442;2024-02-23T11:10:53;9.27;;;1.50;;
23608;SDS011;11982;50.810;4.442;2024-02-23T11:13:29;7.22;;;2.03;;
23608;SDS011;11982;50.810;4.442;2024-02-23T11:16:04;4.70;;;1.23;;
23608;SDS011;11982;50.810;4.442;2024-02-23T11:18:31;8.48;;;1.52;;
23608;SDS011;11982;50.810;4.442;2024-02-23T11:21:00;12.52;;;2.33;;
23608;SDS011;11982;50.810;4.442;2024-02-23T11:23:27;9.63;;;1.10;;
23608;SDS011;11982;50.810;4.442;2024-02-23T11:26:12;8.52;;;1.33;;
23608;SDS011;11982;50.810;4.442;2024-02-23T11:28:42;8.77;;;1.35;;
23608;SDS011;11982;50.810;4.442;2024-02-23T11:31:14;9.77;;;1.85;;
23608;SDS011;11982;50.810;4.442;2024-02-23T11:33:50;7.72;;;1.73;;
23608;SDS011;11982;50.810;4.442;2024-02-23T11:41:21;13.40;;;1.33;;
23608;SDS011;11982;50.810;4.442;2024-02-23T11:43:48;9.10;;;1.77;;
23608;SDS011;11982;50.810;4.442;2024-02-23T11:46:15;7.30;;;2.38;;
23608;SDS011;11982;50.810;4.442;2024-02-23T11:48:42;8.52;;;1.58;;
23608;SDS011;11982;50.810;4.442;2024-02-23T11:51:08;9.73;;;1.92;;
23608;SDS011;11982;50.810;4.442;2024-02-23T11:53:36;8.88;;;1.85;;
23608;SDS011;11982;50.810;4.442;2024-02-23T11:56:04;8.60;;;1.65;;
23608;SDS011;11982;50.810;4.442;2024-02-23T11:58:30;7.65;;;1.63;;
23608;SDS011;11982;50.810;4.442;2024-02-23T12:00:56;3.92;;;1.60;;
23608;SDS011;11982;50.810;4.442;2024-02-23T12:03:23;11.02;;;1.77;;
23608;SDS011;11982;50.810;4.442;2024-02-23T12:05:50;6.70;;;1.25;;
23608;SDS011;11982;50.810;4.442;2024-02-23T12:08:16;6.07;;;1.65;;
23608;SDS011;11982;50.810;4.442;2024-02-23T12:10:42;9.80;;;1.50;;
23608;SDS011;11982;50.810;4.442;2024-02-23T12:13:09;6.18;;;1.77;;
23608;SDS011;11982;50.810;4.442;2024-02-23T12:15:35;7.07;;;1.73;;
23608;SDS011;11982;50.810;4.442;2024-02-23T12:18:00;14.05;;;2.35;;
23608;SDS011;11982;50.810;4.442;2024-02-23T12:20:28;10.82;;;1.55;;
23608;SDS011;11982;50.810;4.442;2024-02-23T12:23:00;8.65;;;1.48;;
23608;SDS011;11982;50.810;4.442;2024-02-23T12:25:26;8.68;;;1.55;;
23608;SDS011;11982;50.810;4.442;2024-02-23T12:27:55;9.18;;;1.35;;
23608;SDS011;11982;50.810;4.442;2024-02-23T12:30:25;5.38;;;1.73;;
23608;SDS011;11982;50.810;4.442;2024-02-23T12:33:02;6.22;;;2.10;;
23608;SDS011;11982;50.810;4.442;2024-02-23T12:35:28;12.40;;;1.58;;
23608;SDS011;11982;50.810;4.442;2024-02-23T12:37:54;7.32;;;1.63;;
23608;SDS011;11982;50.810;4.442;2024-02-23T12:40:19;4.45;;;1.05;;
23608;SDS011;11982;50.810;4.442;2024-02-23T12:42:45;4.43;;;1.25;;
23608;SDS011;11982;50.810;4.442;2024-02-23T12:45:13;3.67;;;1.35;;
23608;SDS011;11982;50.810;4.442;2024-02-23T12:47:39;7.55;;;1.40;;
23608;SDS011;11982;50.810;4.442;2024-02-23T12:50:05;5.30;;;1.23;;
23608;SDS011;11982;50.810;4.442;2024-02-23T12:52:33;7.80;;;1.40;;
23608;SDS011;11982;50.810;4.442;2024-02-23T12:54:59;8.73;;;1.60;;
23608;SDS011;11982;50.810;4.442;2024-02-23T12:57:24;7.18;;;1.52;;
23608;SDS011;11982;50.810;4.442;2024-02-23T12:59:50;7.40;;;1.45;;
23608;SDS011;11982;50.810;4.442;2024-02-23T13:02:16;5.88;;;1.80;;
23608;SDS011;11982;50.810;4.442;2024-02-23T13:04:42;4.38;;;1.35;;
23608;SDS011;11982;50.810;4.442;2024-02-23T13:07:13;8.43;;;1.33;;
23608;SDS011;11982;50.810;4.442;2024-02-23T13:09:39;6.05;;;1.27;;
23608;SDS011;11982;50.810;4.442;2024-02-23T13:12:05;8.38;;;1.60;;
23608;SDS011;11982;50.810;4.442;2024-02-23T13:14:31;8.98;;;1.70;;
23608;SDS011;11982;50.810;4.442;2024-02-23T13:16:56;10.63;;;1.50;;
23608;SDS011;11982;50.810;4.442;2024-02-23T13:19:22;9.10;;;1.33;;
23608;SDS011;11982;50.810;4.442;2024-02-23T13:21:47;6.35;;;1.45;;
23608;SDS011;11982;50.810;4.442;2024-02-23T13:24:13;10.07;;;1.48;;
23608;SDS011;11982;50.810;4.442;2024-02-23T13:26:39;7.10;;;1.20;;
23608;SDS011;11982;50.810;4.442;2024-02-23T13:29:04;10.82;;;1.45;;
23608;SDS011;11982;50.810;4.442;2024-02-23T13:31:30;6.13;;;0.93;;
23608;SDS011;11982;50.810;4.442;2024-02-23T13:33:55;8.45;;;1.02;;
23608;SDS011;11982;50.810;4.442;2024-02-23T13:36:21;9.68;;;1.33;;
23608;SDS011;11982;50.810;4.442;2024-02-23T13:38:47;5.18;;;1.02;;
23608;SDS011;11982;50.810;4.442;2024-02-23T13:41:12;5.50;;;1.00;;
23608;SDS011;11982;50.810;4.442;2024-02-23T13:43:38;6.93;;;1.05;;
23608;SDS011;11982;50.810;4.442;2024-02-23T13:46:04;7.43;;;1.65;;
23608;SDS011;11982;50.810;4.442;2024-02-23T13:48:29;6.88;;;1.55;;
23608;SDS011;11982;50.810;4.442;2024-02-23T13:50:55;8.10;;;1.23;;
23608;SDS011;11982;50.810;4.442;2024-02-23T13:53:21;5.88;;;1.63;;
23608;SDS011;11982;50.810;4.442;2024-02-23T13:55:47;2.88;;;1.10;;
23608;SDS011;11982;50.810;4.442;2024-02-23T13:58:13;4.43;;;0.88;;
23608;SDS011;11982;50.810;4.442;2024-02-23T14:00:38;9.43;;;1.33;;
23608;SDS011;11982;50.810;4.442;2024-02-23T14:03:04;6.80;;;1.10;;
23608;SDS011;11982;50.810;4.442;2024-02-23T14:05:30;6.22;;;1.13;;
23608;SDS011;11982;50.810;4.442;2024-02-23T14:07:55;8.40;;;1.10;;
23608;SDS011;11982;50.810;4.442;2024-02-23T14:10:21;7.20;;;1.40;;
23608;SDS011;11982;50.810;4.442;2024-02-23T14:12:47;3.85;;;0.98;;
23608;SDS011;11982;50.810;4.442;2024-02-23T14:15:15;5.60;;;1.10;;
23608;SDS011;11982;50.810;4.442;2024-02-23T14:17:41;3.53;;;1.05;;
23608;SDS011;11982;50.810;4.442;2024-02-23T14:20:07;5.68;;;1.42;;
23608;SDS011;11982;50.810;4.442;2024-02-23T14:22:34;3.70;;;0.80;;
23608;SDS011;11982;50.810;4.442;2024-02-23T14:24:59;5.55;;;1.20;;
23608;SDS011;11982;50.810;4.442;2024-02-23T14:27:25;5.53;;;1.35;;
23608;SDS011;11982;50.810;4.442;2024-02-23T14:29:53;5.05;;;1.40;;
23608;SDS011;11982;50.810;4.442;2024-02-23T14:32:18;6.35;;;1.25;;
23608;SDS011;11982;50.810;4.442;2024-02-23T14:34:44;5.10;;;1.17;;
23608;SDS011;11982;50.810;4.442;2024-02-23T14:37:13;7.00;;;0.75;;
23608;SDS011;11982;50.810;4.442;2024-02-23T14:39:39;3.85;;;1.00;;
23608;SDS011;11982;50.810;4.442;2024-02-23T14:42:04;3.50;;;0.73;;